Tunnel Hill, GA

22:42 EST, 13. Febral, 2016 (GMT -0500)
Mt Vernon | | Change Station
CLOSE
Current Station
Personal Weather Stations
Location: Tunnel Hill, GA
Böyiklik: 904 ft
Nearby Weather Stations

Elev 904 ft 34.81 °N, 85.05 °W | Updated 15 seconds ago

Ayaz
Ayaz
24.6 °F
Feels Like 25 °F
N
0.0
Cel Üzgärüçän Cel from
Gusts 2.7 mil/seğ

Bogön
High -- | Low -- °F
--% Chance of Precip.
Kiçä
High -- | Low -- °F
Precip. -- in
Basım 30.42 in
Köriniwçenlik 10.0 mil
Bolıtlı Ayaz
Cel köçi 25 °F
Çıq noqtası 9 °F
Dımlıq 51%
Rainfall 0.00 in
Qar bieklege Not available.
7:28 AM 6:20 PM
Waxing Crescent, 37% visible
METAR KDNN 140315Z AUTO 34006KT 10SM CLR M02/M12 A3042 RMK AO2
Basım 30.42 in
Köriniwçenlik 10.0 mil
Bolıtlı Ayaz
Cel köçi 25 °F
Çıq noqtası 9 °F
Dımlıq 51%
Rainfall 0.00 in
Qar bieklege Not available.
7:28 AM 6:20 PM
Waxing Crescent, 37% visible
METAR KDNN 140315Z AUTO 34006KT 10SM CLR M02/M12 A3042 RMK AO2

10-Day Weather Forecast

Almanac

Kükbelem

Feb. 13, 2016 Rise Set
Anıñ çağı
Tormışlı qaranğı
Diñgezdä qarañğı
Küktä qarañğı
Ay
Kürenmäle yaqtı ozınlığı
Kön ozınlığı
Tomorrow will be .
, % of the Moon is Illuminated

Today's Extremes

State Highs State Lows

Community

WunderPhotos

Upload Photos

1,892,738 photos uploaded!

WunderBlog® & News

Nearby

Hawa Sífatı

  Hawa Sífatı HS İndekse Pıçratqıç
Not available.

Qar terenligi

Station Depth Böyiklik

Earthquake Activity

Qala Distance Mag. Time & Date
Minimum magnitude displayed is 2.5.

Coastal Water Temperatures

Orın Cılılıq

Stations

Nearby Weather Stations

Station Location Cılılıq Cel köçi Çıq noqtası Dımlıq Cel Precip. Elev Yañartılıw Töri
                   

Watches & Warnings

There are currently no watches in effect.